Time;durP1;ratioP1;P1;durP2;ratioP2;P2;SDS_P1;SDS_P2;PMS_P1;PMS_P2;Temp;Humidity;BMP_temperature;BMP_pressure;BME280_temperature;BME280_humidity;BME280_pressure;Samples;Min_cycle;Max_cycle;Signal;HPM_P1;HPM_P2
2021/10/18 00:01:41;;;;;;;;;;;11.30;94.90;;;;;;5022938;28;19913;-76
2021/10/18 00:04:07;;;;;;;;;;;11.30;94.90;;;;;;5026087;28;19917;-77
2021/10/18 00:06:33;;;;;;;;;;;11.30;94.90;;;;;;5026032;28;20412;-75
2021/10/18 00:08:58;;;;;;;;;;;11.30;95.00;;;;;;5015951;28;19959;-76
2021/10/18 00:11:24;;;;;;;;;;;11.30;94.90;;;;;;5011841;28;19929;-75
2021/10/18 00:13:49;;;;;;;;;;;11.40;94.90;;;;;;5019637;28;19918;-75
2021/10/18 00:16:15;;;;;;;;;;;11.40;94.90;;;;;;5025824;28;19920;-76
2021/10/18 00:18:40;;;;;;;;;;;11.40;94.80;;;;;;5026395;28;20377;-75
2021/10/18 00:21:06;;;;;;;;;;;11.40;94.80;;;;;;5023911;28;20350;-75
2021/10/18 00:23:31;;;;;;;;;;;11.40;94.80;;;;;;5008149;28;19949;-75
2021/10/18 00:25:57;;;;;;;;;;;11.40;94.70;;;;;;5014801;28;19963;-76
2021/10/18 00:28:22;;;;;;;;;;;11.40;94.70;;;;;;5022618;28;19922;-76
2021/10/18 00:30:48;;;;;;;;;;;11.50;94.70;;;;;;5022491;28;19914;-75
2021/10/18 00:33:14;;;;;;;;;;;11.40;94.70;;;;;;5023310;28;19944;-76
2021/10/18 00:35:39;;;;;;;;;;;11.40;94.70;;;;;;5025509;28;20382;-76
2021/10/18 00:38:05;;;;;;;;;;;11.40;94.70;;;;;;5025697;28;19914;-76
2021/10/18 00:40:30;;;;;;;;;;;11.40;94.70;;;;;;5023760;28;20351;-76
2021/10/18 00:42:56;;;;;;;;;;;11.40;95.00;;;;;;5025192;28;20011;-76
2021/10/18 00:45:21;;;;;;;;;;;11.40;94.70;;;;;;5023969;28;20384;-75
2021/10/18 00:47:47;;;;;;;;;;;11.30;94.70;;;;;;5025232;28;19923;-75
2021/10/18 00:50:13;;;;;;;;;;;11.30;94.80;;;;;;5025316;28;19913;-75
2021/10/18 00:52:39;;;;;;;;;;;11.20;94.90;;;;;;5023638;28;19913;-75
2021/10/18 00:55:05;;;;;;;;;;;11.20;94.90;;;;;;5022650;28;20306;-75
2021/10/18 00:57:31;;;;;;;;;;;11.20;94.90;;;;;;5025023;28;19980;-75
2021/10/18 00:59:57;;;;;;;;;;;11.20;95.00;;;;;;5018301;28;19922;-75
2021/10/18 01:02:22;;;;;;;;;;;11.20;95.00;;;;;;5020512;28;19914;-76
2021/10/18 01:04:48;;;;;;;;;;;11.20;95.00;;;;;;5022885;28;19913;-75
2021/10/18 01:07:14;;;;;;;;;;;11.10;94.90;;;;;;5020536;28;19921;-75
2021/10/18 01:09:39;;;;;;;;;;;11.10;94.90;;;;;;5021330;28;19913;-74
2021/10/18 01:12:05;;;;;;;;;;;11.10;94.80;;;;;;5022830;28;19913;-75
2021/10/18 01:14:30;;;;;;;;;;;11.10;94.80;;;;;;5019151;28;20016;-74
2021/10/18 01:16:56;;;;;;;;;;;11.00;94.80;;;;;;5017685;28;19944;-74
2021/10/18 01:19:24;;;;;;;;;;;11.00;94.80;;;;;;5021683;28;20394;-74
2021/10/18 01:21:54;;;;;;;;;;;11.00;94.80;;;;;;5021650;28;20001;-74
2021/10/18 01:24:19;;;;;;;;;;;10.90;94.80;;;;;;5006700;28;20068;-74
2021/10/18 01:26:45;;;;;;;;;;;10.90;94.70;;;;;;5021496;28;19984;-74
2021/10/18 01:29:10;;;;;;;;;;;10.90;94.80;;;;;;5014216;28;20103;-75
2021/10/18 01:31:37;;;;;;;;;;;10.90;94.80;;;;;;5020324;28;19922;-74
2021/10/18 01:34:03;;;;;;;;;;;10.90;94.80;;;;;;5019286;28;19918;-74
2021/10/18 01:36:28;;;;;;;;;;;10.80;94.70;;;;;;5014364;28;19947;-74
2021/10/18 01:38:54;;;;;;;;;;;10.80;94.70;;;;;;5024148;28;19921;-75
2021/10/18 01:41:19;;;;;;;;;;;10.80;94.80;;;;;;5016017;28;19913;-74
2021/10/18 01:43:45;;;;;;;;;;;10.80;94.80;;;;;;5024386;28;19936;-74
2021/10/18 01:46:10;;;;;;;;;;;10.70;94.80;;;;;;5024500;28;19917;-74
2021/10/18 01:48:35;;;;;;;;;;;10.70;94.80;;;;;;5022165;28;19913;-75
2021/10/18 01:51:01;;;;;;;;;;;10.70;94.80;;;;;;5021044;28;19984;-75
2021/10/18 01:53:26;;;;;;;;;;;10.70;94.80;;;;;;5022407;28;20332;-74
2021/10/18 01:55:52;;;;;;;;;;;10.70;94.80;;;;;;5013876;28;19948;-75
2021/10/18 01:58:17;;;;;;;;;;;10.70;94.80;;;;;;5028418;28;19967;-74
2021/10/18 02:00:43;;;;;;;;;;;10.70;94.80;;;;;;5022177;28;20423;-74
2021/10/18 02:03:09;;;;;;;;;;;10.70;94.80;;;;;;5019471;28;19925;-75
2021/10/18 02:05:35;;;;;;;;;;;10.70;94.80;;;;;;5021536;28;19921;-74
2021/10/18 02:08:00;;;;;;;;;;;10.80;94.80;;;;;;5025111;28;19988;-75
2021/10/18 02:10:26;;;;;;;;;;;10.80;94.70;;;;;;5025055;28;20015;-74
2021/10/18 02:12:51;;;;;;;;;;;10.80;94.70;;;;;;5024832;28;19913;-74
2021/10/18 02:15:17;;;;;;;;;;;10.80;94.70;;;;;;5024821;28;19925;-74
2021/10/18 02:17:42;;;;;;;;;;;10.80;94.70;;;;;;5025061;28;20405;-74
2021/10/18 02:20:09;;;;;;;;;;;10.90;94.70;;;;;;5022633;28;19917;-74
2021/10/18 02:22:34;;;;;;;;;;;10.90;94.70;;;;;;5016098;28;19913;-75
2021/10/18 02:25:00;;;;;;;;;;;10.90;94.80;;;;;;5017000;28;19967;-75
2021/10/18 02:27:26;;;;;;;;;;;10.90;94.70;;;;;;5009015;28;19968;-75
2021/10/18 02:29:51;;;;;;;;;;;10.90;94.80;;;;;;5024824;28;19960;-75
2021/10/18 02:32:16;;;;;;;;;;;10.90;94.80;;;;;;5024317;28;19925;-75
2021/10/18 02:34:42;;;;;;;;;;;10.90;94.80;;;;;;5021422;28;19929;-75
2021/10/18 02:37:07;;;;;;;;;;;10.90;94.70;;;;;;5027133;28;19955;-74
2021/10/18 02:39:33;;;;;;;;;;;10.90;94.70;;;;;;5015795;28;19913;-76
2021/10/18 02:41:58;;;;;;;;;;;10.90;94.70;;;;;;5021558;28;19913;-76
2021/10/18 02:44:24;;;;;;;;;;;10.90;94.70;;;;;;5019199;28;19967;-76
2021/10/18 02:46:49;;;;;;;;;;;10.80;94.70;;;;;;5027681;28;19913;-75
2021/10/18 02:49:15;;;;;;;;;;;10.80;94.70;;;;;;5027246;28;19913;-76
2021/10/18 02:51:40;;;;;;;;;;;10.80;94.70;;;;;;5022598;28;20374;-76
2021/10/18 02:54:06;;;;;;;;;;;10.80;94.70;;;;;;5018690;28;19921;-76
2021/10/18 02:56:31;;;;;;;;;;;10.70;94.70;;;;;;5025705;28;19913;-76
2021/10/18 02:58:57;;;;;;;;;;;10.70;94.70;;;;;;5020038;28;19944;-75
2021/10/18 03:01:22;;;;;;;;;;;10.70;94.70;;;;;;5027262;28;19928;-76
2021/10/18 03:03:47;;;;;;;;;;;10.70;94.70;;;;;;5024835;28;19920;-75
2021/10/18 03:06:13;;;;;;;;;;;10.70;94.70;;;;;;5015866;28;19921;-76
2021/10/18 03:08:39;;;;;;;;;;;10.60;94.70;;;;;;5025856;28;19919;-76
2021/10/18 03:11:04;;;;;;;;;;;10.60;94.70;;;;;;5022760;28;19945;-75
2021/10/18 03:13:30;;;;;;;;;;;10.60;94.70;;;;;;5011086;28;19922;-76
2021/10/18 03:15:55;;;;;;;;;;;10.60;94.70;;;;;;5024602;28;19918;-76
2021/10/18 03:18:20;;;;;;;;;;;10.50;94.70;;;;;;5027165;28;19920;-76
2021/10/18 03:20:46;;;;;;;;;;;10.50;94.70;;;;;;5025855;28;19935;-75
2021/10/18 03:23:11;;;;;;;;;;;10.50;94.70;;;;;;5009295;28;20282;-75
2021/10/18 03:25:37;;;;;;;;;;;10.50;94.70;;;;;;5023754;28;19940;-76
2021/10/18 03:28:03;;;;;;;;;;;10.50;94.70;;;;;;5017340;28;19936;-76
2021/10/18 03:30:29;;;;;;;;;;;10.50;94.70;;;;;;5021115;28;20385;-76
2021/10/18 03:32:54;;;;;;;;;;;10.50;94.70;;;;;;5023244;28;19922;-76
2021/10/18 03:35:20;;;;;;;;;;;10.50;94.70;;;;;;5026178;28;19921;-75
2021/10/18 03:37:45;;;;;;;;;;;10.50;94.70;;;;;;5027224;28;19920;-76
2021/10/18 03:40:12;;;;;;;;;;;10.50;94.70;;;;;;5023823;28;19913;-76
2021/10/18 03:42:38;;;;;;;;;;;10.40;94.80;;;;;;5023352;28;20365;-75
2021/10/18 03:45:07;;;;;;;;;;;10.30;94.80;;;;;;5015260;28;20344;-76
2021/10/18 03:47:33;;;;;;;;;;;10.30;94.80;;;;;;5014750;28;20433;-76
2021/10/18 03:49:58;;;;;;;;;;;10.30;94.90;;;;;;5025895;28;20012;-74
2021/10/18 03:52:24;;;;;;;;;;;10.20;94.90;;;;;;5016638;28;19913;-76
2021/10/18 03:54:49;;;;;;;;;;;10.20;94.90;;;;;;5026279;28;19936;-75
2021/10/18 03:57:16;;;;;;;;;;;10.20;94.90;;;;;;5024386;28;19913;-75
2021/10/18 03:59:42;;;;;;;;;;;10.20;94.90;;;;;;5023236;28;20314;-75
2021/10/18 04:02:07;;;;;;;;;;;10.10;94.80;;;;;;5014938;28;19964;-76
2021/10/18 04:04:33;;;;;;;;;;;10.00;94.80;;;;;;5017671;28;20012;-75
2021/10/18 04:06:58;;;;;;;;;;;10.00;94.80;;;;;;5026008;28;19921;-75
2021/10/18 04:09:24;;;;;;;;;;;10.00;94.80;;;;;;5024236;28;19913;-75
2021/10/18 04:11:49;;;;;;;;;;;9.90;94.70;;;;;;5022663;28;20075;-76
2021/10/18 04:14:14;;;;;;;;;;;9.90;94.70;;;;;;5024831;28;19921;-75
2021/10/18 04:16:40;;;;;;;;;;;9.80;94.70;;;;;;5022156;28;19920;-76
2021/10/18 04:19:05;;;;;;;;;;;9.80;94.80;;;;;;5022185;28;20318;-76
2021/10/18 04:21:31;;;;;;;;;;;9.80;94.80;;;;;;5023271;28;19913;-76
2021/10/18 04:23:56;;;;;;;;;;;9.70;94.80;;;;;;5008248;28;20413;-75
2021/10/18 04:26:22;;;;;;;;;;;9.70;94.80;;;;;;5022095;28;19957;-76
2021/10/18 04:28:47;;;;;;;;;;;9.60;94.70;;;;;;5018147;28;19917;-75
2021/10/18 04:31:13;;;;;;;;;;;9.60;94.80;;;;;;5025386;28;19928;-76
2021/10/18 04:33:38;;;;;;;;;;;9.50;94.80;;;;;;5022108;28;19921;-76
2021/10/18 04:36:04;;;;;;;;;;;9.50;94.80;;;;;;5022144;28;19965;-76
2021/10/18 04:38:30;;;;;;;;;;;9.50;94.80;;;;;;5021178;28;19960;-75
2021/10/18 04:40:55;;;;;;;;;;;9.50;94.90;;;;;;5018354;28;19914;-76
2021/10/18 04:43:21;;;;;;;;;;;9.40;94.90;;;;;;5016808;28;20328;-76
2021/10/18 04:45:46;;;;;;;;;;;9.40;94.90;;;;;;5020807;28;19921;-76
2021/10/18 04:48:12;;;;;;;;;;;9.40;94.90;;;;;;5016244;28;20481;-76
2021/10/18 04:50:37;;;;;;;;;;;9.40;94.90;;;;;;5020413;28;20348;-76
2021/10/18 04:53:02;;;;;;;;;;;9.40;94.90;;;;;;5005397;28;19936;-75
2021/10/18 04:55:28;;;;;;;;;;;9.40;94.90;;;;;;5021762;28;20286;-75
2021/10/18 04:57:54;;;;;;;;;;;9.40;94.80;;;;;;5023943;28;20950;-75
2021/10/18 05:00:21;;;;;;;;;;;9.30;94.80;;;;;;5013301;28;19913;-75
2021/10/18 05:02:46;;;;;;;;;;;9.30;94.80;;;;;;5020636;28;19981;-75
2021/10/18 05:05:12;;;;;;;;;;;9.30;94.80;;;;;;5023698;28;19913;-75
2021/10/18 05:07:37;;;;;;;;;;;9.30;94.80;;;;;;5017409;28;19963;-74
2021/10/18 05:10:03;;;;;;;;;;;9.30;94.80;;;;;;5017385;28;19914;-75
2021/10/18 05:12:28;;;;;;;;;;;9.20;94.70;;;;;;5021556;28;20012;-74
2021/10/18 05:14:54;;;;;;;;;;;9.20;94.80;;;;;;5022443;28;19921;-74
2021/10/18 05:17:19;;;;;;;;;;;9.20;94.80;;;;;;5025074;28;19913;-76
2021/10/18 05:19:45;;;;;;;;;;;9.20;94.70;;;;;;5018928;28;19968;-74
2021/10/18 05:22:10;;;;;;;;;;;9.20;94.80;;;;;;5009398;28;19914;-75
2021/10/18 05:24:35;;;;;;;;;;;9.20;94.80;;;;;;5012482;28;19919;-76
2021/10/18 05:27:01;;;;;;;;;;;9.20;94.80;;;;;;5017477;28;20008;-75
2021/10/18 05:29:26;;;;;;;;;;;9.20;94.80;;;;;;5012665;28;19957;-74
2021/10/18 05:31:52;;;;;;;;;;;9.20;94.70;;;;;;5020908;28;20366;-76
2021/10/18 05:34:17;;;;;;;;;;;9.20;94.70;;;;;;5024406;28;19980;-76
2021/10/18 05:36:43;;;;;;;;;;;9.20;94.70;;;;;;5024671;28;19920;-76
2021/10/18 05:39:08;;;;;;;;;;;9.20;94.70;;;;;;5022599;28;20436;-76
2021/10/18 05:41:34;;;;;;;;;;;9.20;94.70;;;;;;5021318;28;19920;-77
2021/10/18 05:43:59;;;;;;;;;;;9.20;94.70;;;;;;5020497;28;19913;-78
2021/10/18 05:46:25;;;;;;;;;;;9.20;94.60;;;;;;5019332;28;19921;-78
2021/10/18 05:48:50;;;;;;;;;;;9.20;94.60;;;;;;5021418;28;19920;-78
2021/10/18 05:51:16;;;;;;;;;;;9.30;94.70;;;;;;5020872;28;19940;-77
2021/10/18 05:53:41;;;;;;;;;;;9.30;94.70;;;;;;5006806;28;19924;-77
2021/10/18 05:56:07;;;;;;;;;;;9.30;94.60;;;;;;5020955;28;20550;-75
2021/10/18 05:58:32;;;;;;;;;;;9.30;94.60;;;;;;5016964;28;20369;-78
2021/10/18 06:00:57;;;;;;;;;;;9.30;94.70;;;;;;5023438;28;20054;-76
2021/10/18 06:03:23;;;;;;;;;;;9.30;94.70;;;;;;5021660;28;19917;-76
2021/10/18 06:05:51;;;;;;;;;;;9.30;94.60;;;;;;5020992;28;19920;-75
2021/10/18 06:08:16;;;;;;;;;;;9.30;94.60;;;;;;5020903;28;20369;-74
2021/10/18 06:10:42;;;;;;;;;;;9.40;94.70;;;;;;5020995;28;19913;-74
2021/10/18 06:13:08;;;;;;;;;;;9.40;94.70;;;;;;5021059;28;19917;-73
2021/10/18 06:15:34;;;;;;;;;;;9.40;94.70;;;;;;5015043;28;20036;-73
2021/10/18 06:18:06;;;;;;;;;;;9.40;94.60;;;;;;5014650;28;19960;-72
2021/10/18 06:20:32;;;;;;;;;;;9.40;94.60;;;;;;5020645;28;19967;-73
2021/10/18 06:22:57;;;;;;;;;;;9.40;94.60;;;;;;5006701;28;19957;-73
2021/10/18 06:25:24;;;;;;;;;;;9.40;94.60;;;;;;5013354;28;19913;-72
2021/10/18 06:27:50;;;;;;;;;;;9.40;94.60;;;;;;5024596;28;19921;-73
2021/10/18 06:30:15;;;;;;;;;;;9.50;94.60;;;;;;5020269;28;20278;-73
2021/10/18 06:32:41;;;;;;;;;;;9.40;94.60;;;;;;5019793;28;20411;-73
2021/10/18 06:35:07;;;;;;;;;;;9.50;94.60;;;;;;5010773;28;20365;-71
2021/10/18 06:37:33;;;;;;;;;;;9.40;94.60;;;;;;5019459;28;20420;-73
2021/10/18 06:39:58;;;;;;;;;;;9.50;94.70;;;;;;5022795;28;20051;-73
2021/10/18 06:42:24;;;;;;;;;;;9.50;94.70;;;;;;5024220;28;19948;-73
2021/10/18 06:44:49;;;;;;;;;;;9.50;94.70;;;;;;5026529;28;19917;-73
2021/10/18 06:47:16;;;;;;;;;;;9.50;94.70;;;;;;5026503;28;19940;-73
2021/10/18 06:49:42;;;;;;;;;;;9.50;94.70;;;;;;5024695;28;19917;-73
2021/10/18 06:52:07;;;;;;;;;;;9.60;94.80;;;;;;5024500;28;20393;-74
2021/10/18 06:54:42;;;;;;;;;;;9.60;94.80;;;;;;5025155;28;20282;-74
2021/10/18 06:57:07;;;;;;;;;;;9.60;94.80;;;;;;5026322;28;19921;-74
2021/10/18 06:59:33;;;;;;;;;;;9.70;94.80;;;;;;5016628;28;19914;-74
2021/10/18 07:01:59;;;;;;;;;;;9.70;94.80;;;;;;5024086;28;19960;-74
2021/10/18 07:04:26;;;;;;;;;;;9.70;94.80;;;;;;5024085;28;19917;-74
2021/10/18 07:06:52;;;;;;;;;;;9.80;94.80;;;;;;5022476;28;20370;-74
2021/10/18 07:09:17;;;;;;;;;;;9.80;94.80;;;;;;5018405;28;19920;-74
2021/10/18 07:11:43;;;;;;;;;;;9.90;94.80;;;;;;5023825;28;19953;-75
2021/10/18 07:14:08;;;;;;;;;;;9.90;94.80;;;;;;5021886;28;20404;-75
2021/10/18 07:16:34;;;;;;;;;;;9.90;94.80;;;;;;5023677;28;20015;-74
2021/10/18 07:18:59;;;;;;;;;;;10.00;94.90;;;;;;5023801;28;20003;-74
2021/10/18 07:21:25;;;;;;;;;;;10.00;94.80;;;;;;5024197;28;19976;-74
2021/10/18 07:23:52;;;;;;;;;;;10.00;94.90;;;;;;5007958;28;19929;-75
2021/10/18 07:26:20;;;;;;;;;;;10.10;94.90;;;;;;5010018;28;19924;-76
2021/10/18 07:28:46;;;;;;;;;;;10.10;94.80;;;;;;5023435;28;19972;-75
2021/10/18 07:31:11;;;;;;;;;;;10.10;94.80;;;;;;5023294;28;20321;-74
2021/10/18 07:33:37;;;;;;;;;;;10.20;94.80;;;;;;5023249;28;20405;-75
2021/10/18 07:36:08;;;;;;;;;;;10.20;94.90;;;;;;5018833;28;20284;-75
2021/10/18 07:38:37;;;;;;;;;;;10.30;94.90;;;;;;5026912;28;20354;-75
2021/10/18 07:41:03;;;;;;;;;;;10.30;94.80;;;;;;5009995;28;19917;-75
2021/10/18 07:43:29;;;;;;;;;;;10.30;95.10;;;;;;5023439;28;19920;-75
2021/10/18 07:45:54;;;;;;;;;;;10.40;94.90;;;;;;5024798;28;19921;-75
2021/10/18 07:48:19;;;;;;;;;;;10.50;94.90;;;;;;5025036;28;19920;-75
2021/10/18 07:50:45;;;;;;;;;;;10.50;94.90;;;;;;5024423;28;19913;-74
2021/10/18 07:53:10;;;;;;;;;;;10.60;94.90;;;;;;5017010;28;19913;-75
2021/10/18 07:55:37;;;;;;;;;;;10.60;94.90;;;;;;5019089;28;19921;-75
2021/10/18 07:58:03;;;;;;;;;;;10.70;94.90;;;;;;5015503;28;19960;-74
2021/10/18 08:00:28;;;;;;;;;;;10.70;94.90;;;;;;5015543;28;19909;-74
2021/10/18 08:02:54;;;;;;;;;;;10.80;94.90;;;;;;5015996;28;19910;-74
2021/10/18 08:05:19;;;;;;;;;;;10.80;94.90;;;;;;5015878;28;19952;-74
2021/10/18 08:07:47;;;;;;;;;;;10.90;94.90;;;;;;5014013;28;19936;-74
2021/10/18 08:10:14;;;;;;;;;;;10.90;94.90;;;;;;5015003;28;19964;-74
2021/10/18 08:12:40;;;;;;;;;;;11.00;94.90;;;;;;5014185;28;19916;-74
2021/10/18 08:15:05;;;;;;;;;;;11.00;94.90;;;;;;5015343;28;20012;-74
2021/10/18 08:17:31;;;;;;;;;;;11.10;94.90;;;;;;5014238;28;19913;-74
2021/10/18 08:19:56;;;;;;;;;;;11.20;94.90;;;;;;5015050;28;19941;-74
2021/10/18 08:22:22;;;;;;;;;;;11.20;94.90;;;;;;5015285;28;20374;-74
2021/10/18 08:24:47;;;;;;;;;;;11.20;94.90;;;;;;5014806;28;19980;-73
2021/10/18 08:27:13;;;;;;;;;;;11.30;94.90;;;;;;5015177;28;19910;-73
2021/10/18 08:29:38;;;;;;;;;;;11.30;94.90;;;;;;5013903;28;19916;-73
2021/10/18 08:32:04;;;;;;;;;;;11.30;94.90;;;;;;5014780;28;19917;-74
2021/10/18 08:34:30;;;;;;;;;;;11.40;94.90;;;;;;5014926;28;20328;-74
2021/10/18 08:36:55;;;;;;;;;;;11.40;94.90;;;;;;5015393;28;20000;-74
2021/10/18 08:42:08;;;;;;;;;;;11.50;95.00;;;;;;5015302;28;19917;-75
2021/10/18 08:44:34;;;;;;;;;;;11.60;94.90;;;;;;5013664;28;20004;-76
2021/10/18 08:47:02;;;;;;;;;;;11.60;94.90;;;;;;5014954;28;19925;-76
2021/10/18 08:49:28;;;;;;;;;;;11.70;94.90;;;;;;5014824;28;19913;-75
2021/10/18 08:51:53;;;;;;;;;;;11.80;94.90;;;;;;5014612;28;19972;-75
2021/10/18 08:54:19;;;;;;;;;;;11.80;94.90;;;;;;5014273;28;19925;-76
2021/10/18 08:56:44;;;;;;;;;;;11.90;94.90;;;;;;5014692;28;19913;-75
2021/10/18 08:59:10;;;;;;;;;;;11.90;94.90;;;;;;5014586;28;19909;-75
2021/10/18 09:01:59;;;;;;;;;;;12.10;95.20;;;;;;5014685;28;19909;-76
2021/10/18 09:04:26;;;;;;;;;;;12.10;94.90;;;;;;5009064;28;19910;-75
2021/10/18 09:06:53;;;;;;;;;;;12.20;94.90;;;;;;5014474;28;20008;-76
2021/10/18 09:09:23;;;;;;;;;;;12.20;94.90;;;;;;5013907;28;19955;-75
2021/10/18 09:11:49;;;;;;;;;;;12.30;94.90;;;;;;5014442;28;19917;-75
2021/10/18 09:14:15;;;;;;;;;;;12.40;94.90;;;;;;5013155;28;20254;-76
2021/10/18 09:16:42;;;;;;;;;;;12.40;94.90;;;;;;5013225;28;19909;-76
2021/10/18 09:19:18;;;;;;;;;;;12.60;95.00;;;;;;5014095;28;19914;-76
2021/10/18 09:22:04;;;;;;;;;;;12.60;94.90;;;;;;5014479;28;19936;-75
2021/10/18 09:24:29;;;;;;;;;;;12.70;94.90;;;;;;5012528;28;20280;-76
2021/10/18 09:26:56;;;;;;;;;;;12.80;94.90;;;;;;5012889;28;19909;-75
2021/10/18 09:29:22;;;;;;;;;;;12.90;94.90;;;;;;5014172;28;19910;-75
2021/10/18 09:31:58;;;;;;;;;;;12.90;95.00;;;;;;5012675;28;19940;-76
2021/10/18 09:34:29;;;;;;;;;;;13.00;95.00;;;;;;5013976;28;19925;-75
2021/10/18 09:37:03;;;;;;;;;;;13.00;95.00;;;;;;5012451;28;19909;-76
2021/10/18 09:39:29;;;;;;;;;;;13.10;95.00;;;;;;5012770;28;19910;-76
2021/10/18 09:41:57;;;;;;;;;;;13.10;95.00;;;;;;5014206;28;19964;-76
2021/10/18 09:44:49;;;;;;;;;;;13.20;95.00;;;;;;5012638;28;19910;-75
2021/10/18 09:47:38;;;;;;;;;;;13.30;95.10;;;;;;5013845;28;19964;-76
2021/10/18 10:51:59;;;;;;;;;;;14.50;95.10;;;;;;5016464;28;20008;-74
2021/10/18 10:54:40;;;;;;;;;;;14.60;95.10;;;;;;5016907;28;19976;-76
2021/10/18 10:57:13;;;;;;;;;;;14.60;95.10;;;;;;5016863;28;19988;-75
2021/10/18 10:59:50;;;;;;;;;;;14.60;95.10;;;;;;5016864;28;20270;-74
2021/10/18 11:02:26;;;;;;;;;;;14.60;95.10;;;;;;5016815;28;19939;-75
2021/10/18 11:04:54;;;;;;;;;;;14.70;95.20;;;;;;5016369;28;19987;-75
2021/10/18 11:07:35;;;;;;;;;;;14.80;95.20;;;;;;5016729;28;19909;-75
2021/10/18 11:10:02;;;;;;;;;;;14.90;95.20;;;;;;5016637;28;19909;-73
2021/10/18 11:12:30;;;;;;;;;;;15.00;95.10;;;;;;5016568;28;20381;-75
2021/10/18 11:14:58;;;;;;;;;;;15.10;95.10;;;;;;5016526;28;19918;-75
2021/10/18 11:17:24;;;;;;;;;;;15.20;95.10;;;;;;5016558;28;19941;-75
2021/10/18 11:19:55;;;;;;;;;;;15.20;95.10;;;;;;5015919;28;19910;-75
2021/10/18 11:22:49;;;;;;;;;;;15.30;95.10;;;;;;5016391;28;19996;-75
2021/10/18 11:25:16;;;;;;;;;;;15.20;95.10;;;;;;5007121;28;20012;-75
2021/10/18 11:27:43;;;;;;;;;;;15.30;95.10;;;;;;5014335;28;19955;-75
2021/10/18 11:30:10;;;;;;;;;;;15.30;95.10;;;;;;5016159;28;19914;-75
2021/10/18 11:32:36;;;;;;;;;;;15.30;95.10;;;;;;5016080;28;20370;-74
2021/10/18 11:35:05;;;;;;;;;;;15.40;95.10;;;;;;5015676;28;19931;-75
2021/10/18 11:37:45;;;;;;;;;;;15.40;95.10;;;;;;5016275;28;19913;-74
2021/10/18 11:40:12;;;;;;;;;;;15.50;95.10;;;;;;5016210;28;19910;-74
2021/10/18 11:42:46;;;;;;;;;;;15.50;95.00;;;;;;5016039;28;19913;-74
2021/10/18 11:45:15;;;;;;;;;;;15.60;95.00;;;;;;5016103;28;19910;-75
2021/10/18 11:47:40;;;;;;;;;;;15.60;95.00;;;;;;5014082;28;19909;-75
2021/10/18 11:50:06;;;;;;;;;;;15.70;95.00;;;;;;5015921;28;20362;-75
2021/10/18 11:52:32;;;;;;;;;;;15.70;95.10;;;;;;5015962;28;20007;-75
2021/10/18 11:54:59;;;;;;;;;;;15.70;95.10;;;;;;5015687;28;20290;-74
2021/10/18 11:57:27;;;;;;;;;;;15.70;95.00;;;;;;5015858;28;19910;-74
2021/10/18 11:59:53;;;;;;;;;;;15.70;95.00;;;;;;5015720;28;20347;-74
2021/10/18 12:02:22;;;;;;;;;;;15.70;95.10;;;;;;5015273;28;20424;-73
2021/10/18 12:04:54;;;;;;;;;;;15.70;95.00;;;;;;5016028;28;20008;-74
2021/10/18 12:07:38;;;;;;;;;;;15.70;95.00;;;;;;5015680;28;19909;-74
2021/10/18 12:10:14;;;;;;;;;;;15.70;95.00;;;;;;5015664;28;19910;-75
2021/10/18 12:12:40;;;;;;;;;;;15.80;95.10;;;;;;5015316;28;19914;-75
2021/10/18 12:15:06;;;;;;;;;;;15.80;95.10;;;;;;5014079;28;19921;-75
2021/10/18 12:17:34;;;;;;;;;;;15.90;95.10;;;;;;5013812;28;19921;-75
2021/10/18 12:20:00;;;;;;;;;;;15.90;95.10;;;;;;5015339;28;19910;-76
2021/10/18 12:22:25;;;;;;;;;;;15.90;95.10;;;;;;5014137;28;19917;-76
2021/10/18 12:25:03;;;;;;;;;;;15.90;95.10;;;;;;5014052;28;19940;-75
2021/10/18 12:27:29;;;;;;;;;;;16.00;95.10;;;;;;5015372;28;19992;-77
2021/10/18 12:29:54;;;;;;;;;;;16.00;95.10;;;;;;5015065;28;19945;-75
2021/10/18 12:32:19;;;;;;;;;;;16.00;95.00;;;;;;5014486;28;20341;-76
2021/10/18 12:34:45;;;;;;;;;;;16.00;95.00;;;;;;5015037;28;19940;-75
2021/10/18 12:37:11;;;;;;;;;;;15.90;95.00;;;;;;5014523;28;19909;-75
2021/10/18 12:39:39;;;;;;;;;;;15.90;95.10;;;;;;5015027;28;19910;-76
2021/10/18 12:42:28;;;;;;;;;;;15.90;95.10;;;;;;5014957;28;19909;-75
2021/10/18 12:45:08;;;;;;;;;;;16.00;95.10;;;;;;5014679;28;19910;-75
2021/10/18 12:47:36;;;;;;;;;;;16.00;95.10;;;;;;5014517;28;19959;-74
2021/10/18 12:50:13;;;;;;;;;;;16.00;95.00;;;;;;5014853;28;19909;-75
2021/10/18 12:52:40;;;;;;;;;;;15.90;95.00;;;;;;5014832;28;19909;-75
2021/10/18 12:55:10;;;;;;;;;;;15.90;95.10;;;;;;5014566;28;19917;-75
2021/10/18 12:57:35;;;;;;;;;;;15.80;95.10;;;;;;5014883;28;19909;-75
2021/10/18 13:00:08;;;;;;;;;;;15.80;95.10;;;;;;5013121;28;19997;-75
2021/10/18 13:02:35;;;;;;;;;;;15.80;95.10;;;;;;5014746;28;19910;-75
2021/10/18 13:05:13;;;;;;;;;;;15.80;95.10;;;;;;5014582;28;19910;-75
2021/10/18 13:07:39;;;;;;;;;;;15.80;95.10;;;;;;5014636;28;20262;-75
2021/10/18 13:10:06;;;;;;;;;;;15.90;95.20;;;;;;5014503;28;19910;-75
2021/10/18 13:12:31;;;;;;;;;;;15.90;95.10;;;;;;5014429;28;19909;-75
2021/10/18 13:14:59;;;;;;;;;;;15.90;95.00;;;;;;5011999;28;20203;-75
2021/10/18 13:17:25;;;;;;;;;;;15.90;95.10;;;;;;5014384;28;20341;-75
2021/10/18 13:19:51;;;;;;;;;;;16.00;95.10;;;;;;5014303;28;19909;-75
2021/10/18 13:22:16;;;;;;;;;;;16.00;95.00;;;;;;5014199;28;19909;-75
2021/10/18 13:24:42;;;;;;;;;;;16.10;94.90;;;;;;5014138;28;19957;-75
2021/10/18 13:27:07;;;;;;;;;;;16.10;94.90;;;;;;5013010;28;20370;-74
2021/10/18 13:29:33;;;;;;;;;;;16.10;94.90;;;;;;5012567;28;19996;-76
2021/10/18 13:31:59;;;;;;;;;;;16.00;94.90;;;;;;5014033;28;20351;-75
2021/10/18 13:34:24;;;;;;;;;;;16.00;95.00;;;;;;5013959;28;20009;-75
2021/10/18 13:36:50;;;;;;;;;;;16.00;95.00;;;;;;5014132;28;19910;-75
2021/10/18 13:39:15;;;;;;;;;;;16.00;95.00;;;;;;5014132;28;20343;-75
2021/10/18 13:41:40;;;;;;;;;;;16.10;95.10;;;;;;5014085;28;19910;-75
2021/10/18 13:44:08;;;;;;;;;;;16.20;95.00;;;;;;5013470;28;19916;-75
2021/10/18 13:46:34;;;;;;;;;;;16.20;94.90;;;;;;5014053;28;19910;-75
2021/10/18 13:49:00;;;;;;;;;;;16.20;94.90;;;;;;5013247;28;19932;-76
2021/10/18 13:51:25;;;;;;;;;;;16.10;94.90;;;;;;5013849;28;19917;-76
2021/10/18 13:53:51;;;;;;;;;;;16.10;95.00;;;;;;5013890;28;19913;-76
2021/10/18 13:56:19;;;;;;;;;;;16.00;95.00;;;;;;5014015;28;19910;-76
2021/10/18 13:58:44;;;;;;;;;;;16.10;95.10;;;;;;5012543;28;20004;-75
2021/10/18 14:01:10;;;;;;;;;;;16.10;95.10;;;;;;4991311;28;20000;-76
2021/10/18 14:03:35;;;;;;;;;;;16.30;95.10;;;;;;4991558;28;19913;-76
2021/10/18 14:06:01;;;;;;;;;;;16.40;94.90;;;;;;4991699;28;19976;-76
2021/10/18 14:08:26;;;;;;;;;;;16.60;94.90;;;;;;5015876;28;20393;-76
2021/10/18 14:10:52;;;;;;;;;;;16.70;94.80;;;;;;5009478;28;20302;-76
2021/10/18 14:13:17;;;;;;;;;;;16.90;94.70;;;;;;5011696;28;19913;-76
2021/10/18 14:15:43;;;;;;;;;;;17.10;94.50;;;;;;5013692;28;20428;-75
2021/10/18 14:18:08;;;;;;;;;;;17.20;94.40;;;;;;5011957;28;19952;-76
2021/10/18 14:20:34;;;;;;;;;;;17.10;94.30;;;;;;5013641;28;19955;-76
2021/10/18 14:22:59;;;;;;;;;;;16.90;94.30;;;;;;5013783;28;20385;-76
2021/10/18 14:25:25;;;;;;;;;;;16.70;94.50;;;;;;5013662;28;19917;-76
2021/10/18 14:27:50;;;;;;;;;;;16.50;94.60;;;;;;5013175;28;19917;-76
2021/10/18 14:30:16;;;;;;;;;;;16.30;94.70;;;;;;5013534;28;19909;-77
2021/10/18 14:32:41;;;;;;;;;;;16.20;94.80;;;;;;5013371;28;19925;-77
2021/10/18 14:35:07;;;;;;;;;;;16.10;94.90;;;;;;5013427;28;20012;-76
2021/10/18 14:37:33;;;;;;;;;;;16.00;95.00;;;;;;5013450;28;19916;-76
2021/10/18 14:39:58;;;;;;;;;;;16.00;95.10;;;;;;5013472;28;19917;-79
2021/10/18 14:42:24;;;;;;;;;;;16.00;95.10;;;;;;5012844;28;19917;-76
2021/10/18 14:44:49;;;;;;;;;;;15.90;95.10;;;;;;5013425;28;19909;-75
2021/10/18 14:47:15;;;;;;;;;;;15.90;95.00;;;;;;5013531;28;19917;-76
2021/10/18 14:49:40;;;;;;;;;;;16.00;95.00;;;;;;5013521;28;19909;-76
2021/10/18 14:52:05;;;;;;;;;;;15.90;95.00;;;;;;5013375;28;19909;-73
2021/10/18 14:54:31;;;;;;;;;;;15.90;95.00;;;;;;5013189;28;20358;-76
2021/10/18 14:56:57;;;;;;;;;;;15.90;95.00;;;;;;5011649;28;19940;-76
2021/10/18 14:59:22;;;;;;;;;;;15.90;95.00;;;;;;5013389;28;19909;-76
2021/10/18 15:01:47;;;;;;;;;;;15.90;95.00;;;;;;5016273;28;19960;-75
2021/10/18 15:04:13;;;;;;;;;;;15.90;95.00;;;;;;5016678;28;19914;-76
2021/10/18 15:06:39;;;;;;;;;;;15.90;95.00;;;;;;5022926;28;20170;-76
2021/10/18 15:09:04;;;;;;;;;;;16.00;95.00;;;;;;5010697;28;20416;-76
2021/10/18 15:11:31;;;;;;;;;;;16.00;94.90;;;;;;5026055;28;19913;-77
2021/10/18 15:13:57;;;;;;;;;;;15.90;94.90;;;;;;5025452;28;19989;-76
2021/10/18 15:16:23;;;;;;;;;;;15.90;95.00;;;;;;5024638;28;20396;-75
2021/10/18 15:18:48;;;;;;;;;;;15.90;95.20;;;;;;5026417;28;19909;-73
2021/10/18 15:21:14;;;;;;;;;;;15.90;94.90;;;;;;5023993;28;19921;-75